Time;durP1;ratioP1;P1;durP2;ratioP2;P2;SDS_P1;SDS_P2;PMS_P1;PMS_P2;Temp;Humidity;BMP_temperature;BMP_pressure;BME280_temperature;BME280_humidity;BME280_pressure;Samples;Min_cycle;Max_cycle;Signal;HPM_P1;HPM_P2
2022/05/06 00:02:09;;;;;;;20.73;13.90;;;;;;;10.53;100.00;96343.31;4993697;28;24799;-74
2022/05/06 00:04:35;;;;;;;18.25;13.35;;;;;;;10.43;100.00;96349.88;5011971;28;24507;-75
2022/05/06 00:07:02;;;;;;;16.48;12.32;;;;;;;10.38;100.00;96347.56;5007221;28;24441;-75
2022/05/06 00:09:28;;;;;;;21.98;13.60;;;;;;;10.36;100.00;96349.38;5003718;28;24439;-74
2022/05/06 00:11:56;;;;;;;19.75;12.75;;;;;;;10.35;100.00;96347.72;4998761;28;24437;-74
2022/05/06 00:14:22;;;;;;;18.95;12.57;;;;;;;10.36;100.00;96349.38;5009363;28;24467;-74
2022/05/06 00:16:49;;;;;;;18.02;13.13;;;;;;;10.34;100.00;96348.59;4997368;28;24431;-75
2022/05/06 00:19:15;;;;;;;17.90;13.23;;;;;;;10.38;100.00;96341.50;5004805;28;24465;-74
2022/05/06 00:21:42;;;;;;;16.25;13.40;;;;;;;10.25;100.00;96336.16;4993873;28;24815;-74
2022/05/06 00:24:08;;;;;;;15.73;12.88;;;;;;;10.21;100.00;96342.38;4993174;28;24440;-74
2022/05/06 00:26:35;;;;;;;17.30;13.18;;;;;;;10.28;100.00;96335.16;5003500;28;24445;-75
2022/05/06 00:29:03;;;;;;;21.63;12.90;;;;;;;10.25;100.00;96343.91;5005708;28;24436;-75
2022/05/06 00:31:29;;;;;;;17.77;12.73;;;;;;;10.29;100.00;96336.84;5012156;28;20863;-74
2022/05/06 00:33:55;;;;;;;13.82;11.70;;;;;;;10.30;100.00;96335.91;4999084;28;24448;-75
2022/05/06 00:36:22;;;;;;;17.95;12.55;;;;;;;10.32;100.00;96334.09;5009386;28;24441;-75
2022/05/06 00:38:48;;;;;;;13.13;11.65;;;;;;;10.30;100.00;96338.50;4996382;28;24468;-74
2022/05/06 00:41:15;;;;;;;17.55;13.10;;;;;;;10.29;100.00;96340.25;5012028;28;24806;-74
2022/05/06 00:43:42;;;;;;;18.00;13.00;;;;;;;10.35;100.00;96341.69;5011603;28;24985;-74
2022/05/06 00:46:14;;;;;;;18.75;12.30;;;;;;;10.32;100.00;96341.84;5011881;28;24444;-74
2022/05/06 00:48:42;;;;;;;14.68;12.30;;;;;;;10.36;100.00;96346.78;4993110;28;24523;-75
2022/05/06 00:51:09;;;;;;;19.88;12.77;;;;;;;10.32;100.00;96341.84;4998003;28;24443;-75
2022/05/06 00:53:36;;;;;;;13.67;12.10;;;;;;;10.31;100.00;96343.59;5001787;28;24437;-74
2022/05/06 00:56:03;;;;;;;17.95;13.13;;;;;;;10.40;100.00;96340.53;5007276;28;24494;-75
2022/05/06 00:58:32;;;;;;;15.15;12.30;;;;;;;10.39;100.00;96333.69;4995202;28;24659;-75
2022/05/06 01:00:58;;;;;;;19.52;13.00;;;;;;;10.42;100.00;96337.88;5007478;28;24440;-75
2022/05/06 01:03:26;;;;;;;14.67;12.73;;;;;;;10.44;100.00;96340.38;4999691;28;24491;-75
2022/05/06 01:05:53;;;;;;;17.58;12.93;;;;;;;10.44;100.00;96335.19;5001257;28;24803;-74
2022/05/06 01:08:20;;;;;;;22.00;14.27;;;;;;;10.39;100.00;96338.03;4992405;28;24440;-75
2022/05/06 01:10:47;;;;;;;18.52;14.27;;;;;;;10.51;100.00;96336.53;5007880;28;24435;-74
2022/05/06 01:13:13;;;;;;;23.42;15.45;;;;;;;10.39;100.00;96341.44;4991828;28;24488;-74
2022/05/06 01:15:40;;;;;;;18.55;13.65;;;;;;;10.47;100.00;96345.38;4995622;28;24440;-75
2022/05/06 01:18:11;;;;;;;17.25;13.85;;;;;;;10.40;100.00;96334.50;5011368;28;24802;-75
2022/05/06 01:20:43;;;;;;;20.17;13.18;;;;;;;10.43;100.00;96341.28;5010407;28;24561;-74
2022/05/06 01:23:12;;;;;;;19.15;13.93;;;;;;;10.65;100.00;96334.03;4997603;28;24440;-75
2022/05/06 01:25:39;;;;;;;25.40;15.13;;;;;;;10.43;100.00;96336.09;5009193;28;24439;-75
2022/05/06 01:28:07;;;;;;;19.17;15.05;;;;;;;10.53;100.00;96329.50;4992082;28;24486;-74
2022/05/06 01:30:37;;;;;;;20.88;14.80;;;;;;;10.47;100.00;96340.22;5008147;28;24439;-74
2022/05/06 01:33:04;;;;;;;28.65;15.05;;;;;;;10.36;100.00;96340.78;5007288;28;20780;-75
2022/05/06 01:35:33;;;;;;;20.15;14.50;;;;;;;10.46;100.00;96341.13;5005125;28;24447;-74
2022/05/06 01:38:03;;;;;;;19.40;14.97;;;;;;;10.50;100.00;96334.88;4991971;28;24803;-74
2022/05/06 01:40:37;;;;;;;18.73;14.50;;;;;;;10.61;100.00;96338.56;4992168;28;24504;-75
2022/05/06 01:43:08;;;;;;;19.17;15.15;;;;;;;10.52;100.00;96344.22;5003541;28;24440;-74
2022/05/06 01:45:36;;;;;;;19.20;14.63;;;;;;;10.52;100.00;96338.19;5010349;28;24985;-75
2022/05/06 01:48:04;;;;;;;20.30;15.27;;;;;;;10.41;100.00;96344.78;5011059;28;24491;-74
2022/05/06 01:50:32;;;;;;;18.03;14.20;;;;;;;10.45;100.00;96344.63;5010509;28;24436;-75
2022/05/06 01:52:59;;;;;;;20.35;14.38;;;;;;;10.50;100.00;96345.22;5008617;28;24441;-75
2022/05/06 01:55:26;;;;;;;20.77;15.50;;;;;;;10.44;100.00;96348.13;4997881;28;24449;-74
2022/05/06 01:57:54;;;;;;;20.08;15.02;;;;;;;10.40;100.00;96344.88;5006267;28;24452;-75
2022/05/06 02:00:20;;;;;;;24.42;14.23;;;;;;;10.41;100.00;96352.53;4996600;28;24815;-75
2022/05/06 02:02:47;;;;;;;17.48;14.02;;;;;;;10.47;100.00;96345.38;5010517;28;24973;-75
2022/05/06 02:05:19;;;;;;;16.92;14.85;;;;;;;10.36;100.00;96343.34;4997792;28;24504;-73
2022/05/06 02:07:46;;;;;;;18.52;15.30;;;;;;;10.41;100.00;96342.19;4992579;28;20781;-74
2022/05/06 02:10:13;;;;;;;18.58;14.85;;;;;;;10.44;100.00;96341.19;5007045;22;25067;-73
2022/05/06 02:12:39;;;;;;;20.23;15.13;;;;;;;10.54;100.00;96341.56;5011030;28;24443;-73
2022/05/06 02:15:10;;;;;;;24.73;16.23;;;;;;;10.53;100.00;96343.31;5011363;28;20779;-74
2022/05/06 02:17:38;;;;;;;19.80;15.75;;;;;;;10.49;100.00;96340.94;5010859;28;24468;-74
2022/05/06 02:20:05;;;;;;;18.55;14.70;;;;;;;10.40;100.00;96340.53;5010857;28;24511;-74
2022/05/06 02:22:32;;;;;;;23.55;15.55;;;;;;;10.48;100.00;96344.47;5011543;28;24813;-74
2022/05/06 02:24:58;;;;;;;22.03;16.33;;;;;;;10.46;100.00;96351.50;5011670;28;24436;-74
2022/05/06 02:27:25;;;;;;;19.48;15.40;;;;;;;10.43;100.00;96344.72;5011297;28;24436;-74
2022/05/06 02:35:21;;;;;;;21.83;15.25;;;;;;;10.38;100.00;96349.28;5011686;28;24543;-73
2022/05/06 02:37:48;;;;;;;19.80;16.42;;;;;;;10.26;100.00;96337.81;5011047;28;24464;-73
2022/05/06 02:40:14;;;;;;;17.42;15.68;;;;;;;10.35;100.00;96342.53;5011050;28;24464;-73
2022/05/06 02:42:41;;;;;;;18.65;16.15;;;;;;;10.28;100.00;96345.53;5010384;28;24799;-74
2022/05/06 02:45:08;;;;;;;22.33;17.05;;;;;;;10.13;100.00;96349.72;5011611;28;24440;-74
2022/05/06 02:47:35;;;;;;;24.13;16.80;;;;;;;10.21;100.00;96344.13;5011386;28;24443;-74
2022/05/06 02:50:03;;;;;;;19.33;14.73;;;;;;;10.20;100.00;96351.06;5011322;28;24444;-74
2022/05/06 02:52:30;;;;;;;18.80;15.43;;;;;;;10.11;100.00;96346.34;5011569;28;20775;-74
2022/05/06 02:54:56;;;;;;;18.88;15.20;;;;;;;10.04;100.00;96356.19;5011466;28;24437;-74
2022/05/06 02:57:23;;;;;;;20.27;16.42;;;;;;;10.06;100.00;96350.94;5011389;28;25048;-74
2022/05/06 02:59:49;;;;;;;18.70;15.52;;;;;;;9.95;100.00;96346.31;5011858;28;24460;-74
2022/05/06 03:02:16;;;;;;;22.50;15.88;;;;;;;9.87;100.00;96346.72;5011206;28;25187;-74
2022/05/06 03:04:43;;;;;;;18.52;15.30;;;;;;;9.94;100.00;96347.25;5011402;28;24440;-73
2022/05/06 03:07:11;;;;;;;19.40;15.20;;;;;;;9.93;100.00;96351.53;5012738;28;24440;-74
2022/05/06 03:09:38;;;;;;;22.33;17.02;;;;;;;9.94;100.00;96345.47;5014840;28;24436;-74
2022/05/06 03:12:05;;;;;;;19.87;16.37;;;;;;;9.96;100.00;96350.56;5014991;28;24579;-74
2022/05/06 03:14:32;;;;;;;20.50;17.00;;;;;;;10.08;100.00;96343.91;5014912;28;20778;-74
2022/05/06 03:16:58;;;;;;;24.38;17.40;;;;;;;9.99;100.00;96341.81;5015092;28;24443;-74
2022/05/06 03:19:24;;;;;;;21.67;16.52;;;;;;;9.93;100.00;96351.53;5015125;28;24460;-74
2022/05/06 03:21:53;;;;;;;22.52;18.20;;;;;;;9.90;100.00;96350.88;5014986;28;24444;-73
2022/05/06 03:24:21;;;;;;;21.05;17.27;;;;;;;9.92;100.00;96349.06;5015323;28;24440;-73
2022/05/06 03:26:47;;;;;;;27.27;16.80;;;;;;;9.99;100.00;96347.00;5015234;28;24432;-74
2022/05/06 03:29:14;;;;;;;19.27;17.00;;;;;;;9.98;100.00;96346.16;5014320;28;24440;-74
2022/05/06 03:31:40;;;;;;;22.25;17.65;;;;;;;10.12;100.00;96342.84;5014659;28;24428;-73
2022/05/06 03:34:07;;;;;;;20.55;16.77;;;;;;;10.04;100.00;96350.16;5014775;28;24476;-73
2022/05/06 03:36:34;;;;;;;22.88;17.67;;;;;;;10.01;100.00;96342.56;5014774;28;24996;-74
2022/05/06 03:39:00;;;;;;;20.97;16.93;;;;;;;9.86;100.00;96347.63;5012011;28;24436;-74
2022/05/06 03:41:28;;;;;;;23.20;17.55;;;;;;;9.84;100.00;96343.44;5014320;28;24447;-74
2022/05/06 03:43:55;;;;;;;25.77;18.80;;;;;;;9.82;100.00;96346.09;5014249;28;24436;-74
2022/05/06 03:46:21;;;;;;;23.35;18.42;;;;;;;9.71;100.00;96343.19;5014882;28;24444;-74
2022/05/06 03:48:47;;;;;;;22.20;18.23;;;;;;;9.77;100.00;96345.50;5013943;28;21175;-74
2022/05/06 03:51:22;;;;;;;23.80;18.67;;;;;;;9.77;100.00;96344.66;5013944;28;24440;-74
2022/05/06 03:53:49;;;;;;;20.88;17.85;;;;;;;9.76;100.00;96345.59;5013858;28;20653;-73
2022/05/06 03:56:15;;;;;;;19.63;16.75;;;;;;;9.76;100.00;96343.81;5014564;28;24447;-74
2022/05/06 03:58:44;;;;;;;24.02;17.75;;;;;;;9.79;100.00;96343.69;5014679;28;24444;-74
2022/05/06 04:01:11;;;;;;;23.73;18.13;;;;;;;9.80;100.00;96345.34;5013983;28;24536;-74
2022/05/06 04:03:38;;;;;;;20.10;16.90;;;;;;;9.81;100.00;96354.75;5014147;28;20805;-74
2022/05/06 04:06:05;;;;;;;22.33;17.10;;;;;;;9.86;100.00;96350.22;5013624;28;25046;-74
2022/05/06 04:08:32;;;;;;;23.73;17.67;;;;;;;9.86;100.00;96355.38;5014031;28;24527;-74
2022/05/06 04:10:59;;;;;;;21.98;18.23;;;;;;;9.98;100.00;96353.94;5014319;28;24723;-74
2022/05/06 04:13:25;;;;;;;19.58;16.55;;;;;;;9.98;100.00;96355.69;5008727;28;24436;-74
2022/05/06 04:15:53;;;;;;;20.25;17.38;;;;;;;10.12;100.00;96351.47;5014207;28;24427;-74
2022/05/06 04:18:20;;;;;;;18.83;16.17;;;;;;;10.07;100.00;96363.78;5012737;28;24529;-74
2022/05/06 04:23:30;;;;;;;18.95;16.92;;;;;;;10.13;100.00;96370.41;5013038;28;21023;-73
2022/05/06 04:25:58;;;;;;;17.83;15.90;;;;;;;10.08;100.00;96375.81;5006698;28;24467;-73
2022/05/06 04:28:25;;;;;;;20.13;16.63;;;;;;;10.04;100.00;96376.06;5013393;28;24511;-73
2022/05/06 04:30:54;;;;;;;17.05;15.25;;;;;;;9.98;100.00;96382.38;5013065;28;24794;-73
2022/05/06 04:33:21;;;;;;;18.10;15.70;;;;;;;9.99;100.00;96383.22;5013474;28;24432;-73
2022/05/06 04:35:48;;;;;;;20.23;16.10;;;;;;;9.97;100.00;96388.44;5013661;28;24988;-73
2022/05/06 04:38:15;;;;;;;21.15;17.45;;;;;;;9.97;100.00;96388.44;5014137;28;24558;-73
2022/05/06 04:40:42;;;;;;;18.02;16.20;;;;;;;9.97;100.00;96385.88;5013587;28;24830;-74
2022/05/06 04:43:10;;;;;;;18.65;16.63;;;;;;;9.96;100.00;96391.97;5014037;28;24439;-73
2022/05/06 04:45:38;;;;;;;24.60;17.23;;;;;;;9.82;100.00;96394.41;5014632;28;24536;-73
2022/05/06 04:48:07;;;;;;;22.35;18.67;;;;;;;9.70;100.00;96388.94;5014712;28;20943;-72
2022/05/06 04:50:34;;;;;;;21.35;16.90;;;;;;;9.67;100.00;96389.06;5011074;28;24441;-72
2022/05/06 04:53:01;;;;;;;24.58;18.27;;;;;;;9.66;100.00;96394.34;5011923;28;24444;-72
2022/05/06 04:55:28;;;;;;;20.63;17.70;;;;;;;9.63;100.00;96391.88;5012815;28;24439;-72
2022/05/06 04:57:54;;;;;;;18.95;16.63;;;;;;;9.60;100.00;96390.31;5012869;28;20810;-72
2022/05/06 05:00:22;;;;;;;19.92;16.88;;;;;;;9.66;100.00;96402.09;5011480;28;20853;-72
2022/05/06 05:02:49;;;;;;;18.90;16.65;;;;;;;9.66;100.00;96399.50;5012134;28;24431;-72
2022/05/06 05:05:16;;;;;;;21.48;18.10;;;;;;;9.57;100.00;96403.38;5012109;28;24490;-72
2022/05/06 05:07:43;;;;;;;19.27;17.27;;;;;;;9.58;100.00;96405.06;5012376;28;24495;-72
2022/05/06 05:10:10;;;;;;;21.33;17.90;;;;;;;9.51;100.00;96402.84;5011638;28;24445;-72
2022/05/06 05:12:36;;;;;;;19.90;17.33;;;;;;;9.54;100.00;96397.53;5011601;28;25231;-72
2022/05/06 05:15:04;;;;;;;17.98;16.13;;;;;;;9.64;100.00;96399.59;5011755;28;24799;-74
2022/05/06 05:17:31;;;;;;;19.13;17.13;;;;;;;9.63;100.00;96405.66;5011447;28;20812;-72
2022/05/06 05:19:57;;;;;;;21.95;17.23;;;;;;;9.59;100.00;96409.31;5011750;28;24556;-72
2022/05/06 05:22:25;;;;;;;20.65;16.77;;;;;;;9.59;100.00;96416.22;5011749;28;24487;-72
2022/05/06 05:24:51;;;;;;;21.60;16.75;;;;;;;9.64;100.00;96403.91;5011945;28;20783;-72
2022/05/06 05:27:19;;;;;;;22.85;17.08;;;;;;;9.66;100.00;96408.09;5011343;28;24993;-72
2022/05/06 05:29:46;;;;;;;20.48;16.52;;;;;;;9.63;100.00;96407.41;5011323;28;24834;-72
2022/05/06 05:32:12;;;;;;;20.40;17.05;;;;;;;9.56;100.00;96408.63;5011576;28;24423;-72
2022/05/06 05:34:41;;;;;;;18.83;16.92;;;;;;;9.65;100.00;96418.53;5011224;28;20777;-72
2022/05/06 05:37:08;;;;;;;20.03;16.00;;;;;;;9.67;100.00;96412.34;5011607;28;20984;-72
2022/05/06 05:39:37;;;;;;;19.48;15.65;;;;;;;9.69;100.00;96415.72;5011234;28;21427;-72
2022/05/06 05:42:04;;;;;;;19.33;17.33;;;;;;;9.65;100.00;96403.84;5011537;28;21610;-73
2022/05/06 05:49:59;;;;;;;21.92;18.00;;;;;;;9.47;100.00;96403.91;5011175;28;20712;-71
2022/05/06 05:52:26;;;;;;;23.08;18.85;;;;;;;9.50;100.00;96403.75;5010893;28;24443;-71
2022/05/06 05:54:54;;;;;;;20.35;18.15;;;;;;;9.57;100.00;96405.13;5011180;28;25011;-71
2022/05/06 05:57:20;;;;;;;19.13;17.02;;;;;;;9.62;100.00;96408.34;5010779;28;21373;-71
2022/05/06 05:59:47;;;;;;;18.75;16.80;;;;;;;9.62;100.00;96418.69;4994666;28;24444;-71
2022/05/06 06:02:16;;;;;;;20.93;17.63;;;;;;;9.61;100.00;96417.00;5010554;28;20896;-72
2022/05/06 06:04:43;;;;;;;21.38;17.25;;;;;;;9.60;100.00;96421.34;5010428;28;20778;-72
2022/05/06 06:07:09;;;;;;;20.02;16.65;;;;;;;9.62;100.00;96418.69;5010695;28;24973;-72
2022/05/06 06:09:36;;;;;;;19.08;16.90;;;;;;;9.63;100.00;96417.75;5010827;28;24436;-72
2022/05/06 06:12:05;;;;;;;23.45;16.13;;;;;;;9.69;100.00;96422.63;5011705;28;20758;-73
2022/05/06 06:14:31;;;;;;;19.75;15.85;;;;;;;9.75;100.00;96421.47;5011295;28;24440;-74
2022/05/06 06:16:58;;;;;;;22.80;17.52;;;;;;;9.76;100.00;96421.44;5011402;28;24494;-74
2022/05/06 06:19:25;;;;;;;19.58;17.13;;;;;;;9.65;100.00;96421.13;5011241;28;20786;-74
2022/05/06 06:21:51;;;;;;;19.85;17.70;;;;;;;9.70;100.00;96417.38;5011045;28;24452;-74
2022/05/06 06:24:19;;;;;;;16.65;14.85;;;;;;;9.72;100.00;96419.91;5011105;28;24437;-73
2022/05/06 06:26:45;;;;;;;19.85;16.80;;;;;;;9.76;100.00;96421.44;5010845;28;20959;-71
2022/05/06 06:29:13;;;;;;;17.50;15.45;;;;;;;9.80;100.00;96425.53;5010640;28;24436;-71
2022/05/06 06:31:39;;;;;;;19.80;16.52;;;;;;;9.82;100.00;96422.84;5010147;28;24436;-71
2022/05/06 06:34:06;;;;;;;17.67;15.60;;;;;;;9.86;100.00;96421.78;5010054;28;24437;-71
2022/05/06 06:36:32;;;;;;;19.73;16.52;;;;;;;9.79;100.00;96429.03;5010573;28;24440;-71
2022/05/06 06:38:59;;;;;;;20.73;17.70;;;;;;;9.80;100.00;96425.53;5010727;28;24444;-71
2022/05/06 06:41:26;;;;;;;20.48;16.67;;;;;;;9.92;100.00;96437.84;5010551;28;24459;-70
2022/05/06 06:43:52;;;;;;;22.52;18.95;;;;;;;9.85;100.00;96427.88;5014672;28;24440;-70
2022/05/06 06:46:20;;;;;;;20.15;16.02;;;;;;;9.91;100.00;96428.44;5014180;28;24436;-67
2022/05/06 06:48:47;;;;;;;20.05;17.83;;;;;;;9.95;100.00;96429.13;5014519;28;24436;-72
2022/05/06 06:51:13;;;;;;;20.27;17.63;;;;;;;9.94;100.00;96424.84;5014714;28;24606;-71
2022/05/06 06:53:40;;;;;;;19.07;17.00;;;;;;;9.95;100.00;96436.88;5014411;28;24436;-71
2022/05/06 06:56:06;;;;;;;20.73;17.00;;;;;;;9.98;100.00;96436.72;5014464;28;21370;-72
2022/05/06 06:58:33;;;;;;;21.65;16.77;;;;;;;10.03;100.00;96439.09;5014208;28;24444;-71
2022/05/06 07:00:59;;;;;;;18.80;16.90;;;;;;;10.07;100.00;96436.25;5014418;28;24448;-71
2022/05/06 07:03:27;;;;;;;21.77;17.05;;;;;;;10.22;100.00;96439.00;5017670;28;24436;-72
2022/05/06 07:14:17;;;;;;;17.23;15.13;;;;;;;10.36;100.00;96450.34;4973335;28;24432;-71
2022/05/06 07:16:43;;;;;;;18.33;16.05;;;;;;;10.37;100.00;96443.41;5004242;28;20829;-71
2022/05/06 07:19:11;;;;;;;19.60;15.65;;;;;;;10.33;100.00;96450.50;5014673;28;24436;-71
2022/05/06 07:21:38;;;;;;;18.17;14.85;;;;;;;10.32;100.00;96451.44;5014950;28;24513;-71
2022/05/06 07:24:06;;;;;;;18.05;15.10;;;;;;;10.36;100.00;96441.75;5014215;28;24440;-71
2022/05/06 07:26:32;;;;;;;17.63;14.68;;;;;;;10.35;100.00;96450.44;5014239;28;24435;-72
2022/05/06 07:28:59;;;;;;;15.68;14.15;;;;;;;10.33;100.00;96452.25;5014451;28;24439;-71
2022/05/06 07:31:25;;;;;;;18.37;14.00;;;;;;;10.40;100.00;96438.09;5014329;28;24447;-71
2022/05/06 07:33:51;;;;;;;15.10;13.60;;;;;;;10.51;100.00;96455.66;5013983;28;24833;-72
2022/05/06 07:36:19;;;;;;;17.08;13.55;;;;;;;10.54;100.00;96442.56;5015894;28;24447;-71
2022/05/06 07:38:46;;;;;;;20.13;13.90;;;;;;;10.65;100.00;96445.44;5014905;28;24467;-70
2022/05/06 07:41:12;;;;;;;14.85;12.50;;;;;;;10.68;100.00;96450.47;5013700;28;25109;-70
2022/05/06 07:43:39;;;;;;;15.90;12.18;;;;;;;10.67;100.00;96443.56;5012645;28;25206;-71
2022/05/06 07:46:05;;;;;;;13.85;11.73;;;;;;;10.66;100.00;96436.72;5013804;28;20783;-71
2022/05/06 07:48:32;;;;;;;13.35;11.77;;;;;;;10.83;100.00;96448.81;5013292;28;24432;-70
2022/05/06 07:50:58;;;;;;;14.82;11.80;;;;;;;10.85;100.00;96447.78;5013776;28;24465;-71
2022/05/06 07:53:26;;;;;;;14.00;11.02;;;;;;;10.87;100.00;96451.16;5013507;28;24495;-71
2022/05/06 07:55:52;;;;;;;13.95;10.95;;;;;;;10.80;100.00;96442.03;5013354;28;24444;-71
2022/05/06 07:58:19;;;;;;;11.20;9.95;;;;;;;10.82;100.00;96450.53;5013292;28;24978;-72
2022/05/06 08:00:45;;;;;;;12.68;10.00;;;;;;;10.94;100.00;96454.25;5012987;28;24460;-72
2022/05/06 08:05:57;;;;;;;10.90;9.75;;;;;;;11.03;100.00;96455.50;5013347;28;24448;-72
2022/05/06 08:08:26;;;;;;;12.35;10.00;;;;;;;10.89;100.00;96456.25;5013510;28;20816;-72
2022/05/06 08:10:53;;;;;;;11.15;9.55;;;;;;;11.02;100.00;96454.69;5046090;22;24498;-72
2022/05/06 08:13:20;;;;;;;12.25;9.07;;;;;;;11.06;100.00;96456.19;5032339;28;24442;-72
2022/05/06 08:15:47;;;;;;;13.00;10.05;;;;;;;11.00;100.00;96458.25;5032077;28;24432;-72
2022/05/06 08:18:13;;;;;;;12.40;9.43;;;;;;;10.97;100.00;96461.84;5032375;28;24619;-72
2022/05/06 08:20:41;;;;;;;13.30;9.63;;;;;;;11.04;100.00;96470.97;5023785;28;24491;-72
2022/05/06 08:23:08;;;;;;;11.20;9.35;;;;;;;11.36;100.00;96464.06;5012660;28;24437;-69
2022/05/06 08:25:36;;;;;;;12.27;8.70;;;;;;;11.32;100.00;96462.56;5012716;28;24439;-72
2022/05/06 08:28:02;;;;;;;13.03;9.17;;;;;;;11.39;100.00;96460.47;5012275;28;24901;-72
2022/05/06 08:30:29;;;;;;;14.53;9.70;;;;;;;11.43;100.00;96468.91;5012485;28;24444;-72
2022/05/06 08:32:56;;;;;;;10.95;9.27;;;;;;;11.47;100.00;96470.41;5011900;28;24431;-72
2022/05/06 08:35:23;;;;;;;12.43;8.35;;;;;;;11.56;100.00;96462.94;5012219;28;24471;-72
2022/05/06 08:37:49;;;;;;;9.40;8.20;;;;;;;11.66;100.00;96471.06;5012491;28;24474;-73
2022/05/06 08:40:18;;;;;;;12.73;8.38;;;;;;;11.69;100.00;96473.50;5011846;28;25008;-72
2022/05/06 08:42:47;;;;;;;12.18;8.13;;;;;;;11.65;100.00;96473.75;5011772;28;24552;-72
2022/05/06 08:50:53;;;;;;;9.43;7.30;;;;;;;11.73;100.00;96477.59;5011691;28;24455;-72
2022/05/06 08:53:21;;;;;;;9.07;7.28;;;;;;;11.87;100.00;96479.44;5011927;28;20915;-72
2022/05/06 08:55:49;;;;;;;7.85;6.43;;;;;;;11.90;100.00;96486.19;5011453;28;20874;-71
2022/05/06 08:58:17;;;;;;;9.80;6.20;;;;;;;11.91;100.00;96478.34;5011738;28;25012;-72
2022/05/06 09:00:44;;;;;;;7.60;6.13;;;;;;;11.79;100.00;96486.78;5011715;28;24487;-72
2022/05/06 09:03:11;;;;;;;11.05;6.30;;;;;;;11.88;100.00;96480.28;5011610;28;24441;-73
2022/05/06 09:05:49;;;;;;;9.00;5.65;;;;;;;12.11;100.00;96490.19;5011173;28;24929;-73
2022/05/06 09:08:15;;;;;;;10.30;6.00;;;;;;;11.87;100.00;96482.03;5009831;28;24514;-72
2022/05/06 09:10:42;;;;;;;8.37;5.63;;;;;;;11.95;100.00;96486.78;5010945;28;24490;-73
2022/05/06 09:13:08;;;;;;;8.50;5.80;;;;;;;11.92;100.00;96485.19;5011014;28;25001;-73
2022/05/06 09:18:22;;;;;;;9.93;5.47;;;;;;;12.17;100.00;96491.59;5010569;28;24436;-71
2022/05/06 09:20:50;;;;;;;7.67;5.10;;;;;;;12.12;100.00;96489.25;5011632;28;24432;-73
2022/05/06 09:23:24;;;;;;;5.75;4.63;;;;;;;12.00;100.00;96498.56;5011609;28;24487;-73
2022/05/06 09:25:51;;;;;;;8.35;5.10;;;;;;;12.01;100.00;96495.03;5011309;28;24515;-73
2022/05/06 09:28:23;;;;;;;9.55;5.78;;;;;;;12.22;100.00;96497.34;5011082;28;24443;-73
2022/05/06 09:31:01;;;;;;;6.70;4.80;;;;;;;12.08;100.00;96490.34;5011015;28;25024;-73
2022/05/06 09:33:28;;;;;;;7.35;4.57;;;;;;;12.24;100.00;96496.34;5011318;28;24895;-73
2022/05/06 09:35:55;;;;;;;11.32;4.70;;;;;;;12.28;100.00;96497.84;5011454;28;24480;-73
2022/05/06 09:38:22;;;;;;;8.80;4.85;;;;;;;12.24;100.00;96498.94;5010983;28;24555;-72
2022/05/06 09:40:49;;;;;;;8.53;4.70;;;;;;;12.24;100.00;96501.53;5011030;28;24564;-72
2022/05/06 09:43:18;;;;;;;8.00;4.65;;;;;;;12.17;100.00;96502.81;5010528;28;24454;-71
2022/05/06 09:45:46;;;;;;;10.20;4.70;;;;;;;12.13;100.00;96501.31;5010862;28;24802;-72
2022/05/06 09:48:15;;;;;;;7.17;4.50;;;;;;;12.54;100.00;96492.88;5011139;28;24472;-72
2022/05/06 09:50:44;;;;;;;12.38;4.60;;;;;;;12.50;100.00;96496.59;5010672;28;25015;-72
2022/05/06 09:53:12;;;;;;;7.28;4.97;;;;;;;12.69;100.00;96485.94;5010437;28;24491;-72
2022/05/06 09:55:40;;;;;;;10.10;4.75;;;;;;;12.67;100.00;96490.38;5010890;28;24440;-71
2022/05/06 09:58:08;;;;;;;7.78;4.25;;;;;;;12.64;100.00;96490.56;5010653;28;24435;-71
2022/05/06 10:00:35;;;;;;;12.07;4.03;;;;;;;12.67;99.54;96493.81;5010957;28;24814;-71
2022/05/06 10:03:02;;;;;;;8.60;4.30;;;;;;;12.78;97.43;96496.59;5010476;28;24495;-71
2022/05/06 10:05:33;;;;;;;7.80;4.07;;;;;;;12.98;97.30;96492.00;5010574;28;24539;-71
2022/05/06 10:08:03;;;;;;;7.97;4.05;;;;;;;13.02;99.84;96491.72;5010815;28;24438;-71
2022/05/06 10:10:32;;;;;;;7.35;4.10;;;;;;;12.86;96.22;96496.16;5010142;28;24540;-72
2022/05/06 10:13:04;;;;;;;5.28;3.80;;;;;;;13.06;100.00;96497.56;5010245;28;24972;-72
2022/05/06 10:15:31;;;;;;;4.70;3.72;;;;;;;13.10;100.00;96488.63;5009819;28;24447;-71
2022/05/06 10:18:00;;;;;;;5.60;4.15;;;;;;;13.15;95.31;96485.75;5011000;28;24444;-71
2022/05/06 10:20:49;;;;;;;7.38;3.63;;;;;;;13.25;95.55;96490.31;5010569;28;24516;-71
2022/05/06 10:23:18;;;;;;;8.90;3.75;;;;;;;13.30;94.92;96490.84;5009860;28;24452;-72
2022/05/06 10:25:52;;;;;;;8.20;3.80;;;;;;;13.31;98.16;96483.88;5010262;28;24480;-72
2022/05/06 10:34:29;;;;;;;5.28;3.90;;;;;;;14.09;90.87;96481.53;5009627;28;24513;-72
2022/05/06 10:37:00;;;;;;;8.07;3.85;;;;;;;14.17;86.93;96474.03;5010058;28;24452;-72
2022/05/06 10:39:28;;;;;;;4.85;3.30;;;;;;;14.17;88.91;96475.81;5010148;28;24447;-72
2022/05/06 10:42:02;;;;;;;8.98;3.20;;;;;;;14.49;94.00;96473.66;5010172;28;24552;-71
2022/05/06 10:44:33;;;;;;;6.55;4.22;;;;;;;14.52;79.14;96470.88;5010089;28;24440;-72
2022/05/06 10:47:00;;;;;;;7.85;4.22;;;;;;;14.83;79.41;96467.03;5010434;28;24523;-72
2022/05/06 10:49:47;;;;;;;5.15;3.75;;;;;;;14.91;80.39;96464.72;5010274;28;24436;-72
2022/05/06 10:52:44;;;;;;;4.97;3.72;;;;;;;15.04;80.50;96466.47;5010215;28;24429;-72
2022/05/06 10:55:13;;;;;;;6.35;3.80;;;;;;;15.32;83.62;96458.38;4998908;28;25063;-72
2022/05/06 10:57:56;;;;;;;8.70;3.92;;;;;;;15.53;83.70;96463.84;5010004;28;24439;-72
2022/05/06 11:00:25;;;;;;;6.85;3.72;;;;;;;15.07;74.00;96459.28;5009484;28;24448;-73
2022/05/06 11:02:52;;;;;;;11.13;3.53;;;;;;;15.39;73.29;96464.00;5009628;28;24458;-72
2022/05/06 11:05:21;;;;;;;5.40;3.17;;;;;;;15.44;73.14;96467.13;5010656;28;24471;-71
2022/05/06 11:07:51;;;;;;;6.88;4.15;;;;;;;15.45;73.94;96458.34;5009679;28;24523;-73
2022/05/06 11:10:19;;;;;;;4.53;2.75;;;;;;;15.37;72.71;96476.31;5010453;28;24592;-73
2022/05/06 11:12:48;;;;;;;5.70;3.42;;;;;;;15.52;70.11;96470.00;5010521;28;24436;-74
2022/05/06 11:15:16;;;;;;;6.70;2.80;;;;;;;15.64;69.51;96471.75;5009658;28;24469;-73
2022/05/06 11:17:44;;;;;;;4.63;2.53;;;;;;;15.76;70.26;96471.81;5010053;28;24433;-73
2022/05/06 11:20:21;;;;;;;5.45;3.00;;;;;;;16.07;73.76;96467.84;5010032;28;24471;-72
2022/05/06 11:22:54;;;;;;;5.97;3.08;;;;;;;16.11;69.21;96474.50;5009506;28;24547;-73
2022/05/06 11:25:21;;;;;;;8.50;3.17;;;;;;;16.30;70.56;96474.78;5019068;28;24915;-72
2022/05/06 11:27:49;;;;;;;6.63;3.47;;;;;;;16.10;64.74;96468.44;5017820;28;25011;-72
2022/05/06 11:30:19;;;;;;;9.65;3.03;;;;;;;16.31;69.23;96475.63;5021536;28;24444;-72
2022/05/06 11:32:54;;;;;;;6.40;3.00;;;;;;;15.88;67.88;96466.56;5015973;28;24838;-72
2022/05/06 11:35:26;;;;;;;5.05;2.88;;;;;;;15.90;71.00;96464.66;5022780;28;24443;-72
2022/05/06 11:37:53;;;;;;;6.03;3.50;;;;;;;16.09;67.75;96472.00;5022099;28;24524;-73
2022/05/06 11:40:33;;;;;;;6.47;3.88;;;;;;;16.13;67.19;96470.84;5017782;28;24976;-72
2022/05/06 11:43:01;;;;;;;5.93;3.67;;;;;;;15.99;66.25;96462.34;5022446;28;24483;-72
2022/05/06 11:48:13;;;;;;;6.03;2.95;;;;;;;15.84;67.10;96461.69;5020589;28;24419;-72
2022/05/06 11:50:41;;;;;;;4.15;2.80;;;;;;;15.60;67.50;96464.25;5014884;28;24990;-73
2022/05/06 11:53:11;;;;;;;5.60;2.90;;;;;;;15.77;71.52;96463.06;5009689;28;24420;-73
2022/05/06 11:55:38;;;;;;;5.68;3.38;;;;;;;15.72;67.51;96456.41;5013400;28;24462;-72
2022/05/06 11:58:06;;;;;;;5.57;2.60;;;;;;;16.07;72.65;96460.00;5013333;28;24444;-73
2022/05/06 12:00:33;;;;;;;8.73;3.40;;;;;;;16.06;69.37;96461.78;5012976;28;24802;-73
2022/05/06 12:03:04;;;;;;;5.78;4.53;;;;;;;16.29;75.27;96459.25;5012805;28;24447;-72